createdAt,value
2018-11-28T00:24:07.578Z,46.50
2018-11-28T00:37:14.766Z,46.60
2018-11-28T00:50:21.961Z,46.80
2018-11-28T01:03:29.222Z,46.80
2018-11-28T01:16:36.408Z,47.60
2018-11-28T01:30:00.154Z,47.00
2018-11-28T01:43:22.991Z,47.10
2018-11-28T01:56:45.819Z,47.20
2018-11-28T02:10:08.785Z,47.20
2018-11-28T02:23:31.467Z,47.40
2018-11-28T02:36:54.245Z,47.40
2018-11-28T02:50:17.064Z,47.40
2018-11-28T03:03:39.899Z,47.50
2018-11-28T03:17:02.729Z,47.50
2018-11-28T03:30:25.653Z,47.50
2018-11-28T03:43:48.568Z,47.60
2018-11-28T03:57:11.181Z,47.40
2018-11-28T04:10:33.987Z,46.90
2018-11-28T04:23:56.784Z,47.40
2018-11-28T04:37:19.612Z,47.50
2018-11-28T04:50:42.430Z,46.80
2018-11-28T05:04:05.245Z,46.70
2018-11-28T05:17:28.060Z,46.40
2018-11-28T05:43:52.525Z,46.30
2018-11-28T05:56:59.714Z,46.20
2018-11-28T06:10:06.937Z,46.10
2018-11-28T06:23:14.086Z,46.00
2018-11-28T06:36:21.236Z,46.00
2018-11-28T07:02:31.213Z,30.60
2018-11-28T07:15:38.570Z,36.40
2018-11-28T07:28:45.769Z,38.30
2018-11-28T07:41:52.959Z,42.00
2018-11-28T07:55:00.150Z,43.80
2018-11-28T08:08:07.352Z,44.20
2018-11-28T08:21:30.862Z,43.90
2018-11-28T08:34:53.680Z,42.00
2018-11-28T08:48:16.543Z,41.80
2018-11-28T09:01:39.352Z,42.00
2018-11-28T09:15:02.214Z,42.30
2018-11-28T09:28:24.967Z,42.70
2018-11-28T09:41:47.763Z,42.90
2018-11-28T10:08:12.292Z,43.60
2018-11-28T10:21:19.505Z,44.00
2018-11-28T10:34:29.367Z,44.10
2018-11-28T10:47:33.906Z,44.10
2018-11-28T11:00:41.193Z,44.30
2018-11-28T11:13:48.361Z,44.40
2018-11-28T11:40:13.873Z,44.60
2018-11-28T11:53:21.064Z,44.60
2018-11-28T12:06:28.319Z,44.90
2018-11-28T12:19:35.629Z,45.10
2018-11-28T12:32:42.823Z,45.20
2018-11-28T12:46:06.980Z,45.30
2018-11-28T12:59:29.814Z,45.40
2018-11-28T13:12:52.615Z,45.30
2018-11-28T13:26:15.438Z,45.40
2018-11-28T13:39:38.262Z,45.50
2018-11-28T13:53:01.053Z,45.40
2018-11-28T14:06:23.936Z,45.40
2018-11-28T14:19:47.624Z,45.50
2018-11-28T14:33:09.582Z,45.70
2018-11-28T14:46:32.568Z,45.50
2018-11-28T14:59:55.285Z,45.60
2018-11-28T15:13:17.979Z,45.30
2018-11-28T15:26:40.841Z,45.00
2018-11-28T15:40:03.615Z,45.20
2018-11-28T15:53:26.408Z,45.20
2018-11-28T16:06:49.282Z,45.20
2018-11-28T16:20:12.029Z,45.20
2018-11-28T16:46:36.589Z,45.10
2018-11-28T16:59:43.802Z,45.00
2018-11-28T17:12:50.996Z,45.00
2018-11-28T17:25:58.981Z,45.00
2018-11-28T17:52:09.073Z,44.90
2018-11-28T18:05:16.345Z,45.00
2018-11-28T18:18:23.582Z,45.10
2018-11-28T18:31:30.926Z,45.10
2018-11-28T18:44:38.094Z,45.20
2018-11-28T18:58:02.030Z,44.10
2018-11-28T19:11:25.335Z,37.40
2018-11-28T19:24:48.161Z,40.50
2018-11-28T19:38:11.608Z,41.20
2018-11-28T19:51:33.357Z,41.80
2018-11-28T20:04:56.201Z,42.10
2018-11-28T20:18:18.901Z,42.40
2018-11-28T20:31:41.696Z,42.50
2018-11-28T20:45:04.518Z,42.70
2018-11-28T20:58:27.445Z,42.80
2018-11-28T21:11:50.193Z,42.90
2018-11-28T21:25:12.958Z,43.10
2018-11-28T21:38:35.820Z,43.10
2018-11-28T21:51:58.665Z,43.30
2018-11-28T22:18:23.070Z,41.50
2018-11-28T22:31:30.297Z,42.00
2018-11-28T22:44:37.506Z,42.30
2018-11-28T22:57:44.810Z,42.50
2018-11-28T23:10:52.007Z,42.60
2018-11-28T23:23:59.328Z,42.80
2018-11-28T23:37:22.825Z,42.90
2018-11-28T23:50:45.627Z,43.00
